Tropical Cyclones
[Index]
Main Index Home Page Stock Weather Photos Extreme Storms Discussion Storm News and Storm Chasing Reports Tropical Cyclones / Hurricanes / Typhoons Weather Data and Links Wild Fires / Bushfires Weather Observation Techniques Weather Picture Catalogue Tornado Pictures and Reports Stock Video Footage and DVDs for sale
Season 1971-1972 Tropical Cyclone FAITH Track Map
Season 1971-1972 Summaries: [BoM-AU] [JTWC-AU] [JTWC-SIO] [JTWC-SPAC] [JTWC-SH]
<<- Previous TC | BoM 1971-1972 Season | Next TC ->>

click for intensity scale information  Lat/long Grid: Show Hide

 Date Labels: Show Hide

Bureau of Meteorology Tropical Cyclone Data

Name: FAITH
Number: 495 / 197172_17

10 Apr 1972 17:00 UTC to 24 Apr 1972 05:00 UTC

    date/time    lat    long    hPa   cat  kts
1972-04-10 17   11.0   139.5   1004                     
1972-04-10 20   10.9   139.6   1004                     
1972-04-10 23   10.9   139.7   1004                     
1972-04-11 02   10.9   139.8   1002                     
1972-04-11 05   11.0   139.9   1002                     
1972-04-11 08   11.0   140.0   1002                     
1972-04-11 11   11.1   140.0   1003                     
1972-04-11 14   11.1   140.1   1003                     
1972-04-11 17   11.2   140.1   1002                     
1972-04-11 20   11.3   140.2   1002                     
1972-04-11 23   11.5   140.3    997                     
1972-04-12 02   11.6   140.4    992    1                
1972-04-12 05   11.7   140.5    990    1                
1972-04-12 08   11.9   140.6    992    1                
1972-04-12 11   12.1   140.7    992    1                
1972-04-12 14   12.2   140.9    992    1                
1972-04-12 17   12.3   141.1    990    1                
1972-04-12 20   12.5   141.2    990    1                
1972-04-12 23   12.7   141.3    992    1                
1972-04-13 02   12.8   141.5    995    1                
1972-04-13 05   12.9   141.7    997                     
1972-04-13 08   13.0   141.8    998                     
1972-04-13 11   13.0   142.0   1000                     
1972-04-13 14   13.0   142.3   1002                     
1972-04-13 17   13.0   142.8   1002                     
1972-04-13 20   13.0   143.3   1002                     
1972-04-13 23   13.0   143.7   1002                     
1972-04-14 02   13.0   144.1   1001                     
1972-04-14 05   13.1   144.5    997                     
1972-04-14 08   13.2   144.4    992    1                
1972-04-14 11   13.3   145.3    992    1                
1972-04-14 14   13.4   145.7    992    1                
1972-04-14 17   13.5   146.1    992    1                
1972-04-14 20   13.6   147.6    992    1                
1972-04-14 23   13.7   147.2    992    1                
1972-04-15 02   13.8   147.7    992    1                
1972-04-15 05   13.9   148.2    990    1                
1972-04-15 08   14.0   148.6    990    1                
1972-04-15 11   14.1   149.0    990    1                
1972-04-15 14   14.1   149.3    990    1                
1972-04-15 17   14.1   149.6    990    1                
1972-04-15 20   14.2   149.8    990    1                
1972-04-15 23   14.2   150.0    992    1                
1972-04-16 02   14.2   150.2    990    1                
1972-04-16 05   14.2   150.4    990    1                
1972-04-16 08   14.1   150.6    990    1                
1972-04-16 11   14.1   150.8    992    1                
1972-04-16 14   14.0   151.0    994    1                
1972-04-16 17   13.9   151.2    994    1                
1972-04-16 20   13.7   151.4    994    1                
1972-04-16 23   13.4   151.6    994    1                
1972-04-17 02   13.1   151.8    994    1                
1972-04-17 05   12.8   151.9    994    1                
1972-04-17 08   12.5   152.0    994    1                
1972-04-17 11   12.2   152.3    994    1                
1972-04-17 14   12.0   152.1    994    1                
1972-04-17 17   11.8   152.1    994    1                
1972-04-17 20   11.7   152.0    994    1                
1972-04-17 23   11.6   151.9    994    1                
1972-04-18 02   11.5   151.7    994    1                
1972-04-18 05   11.5   151.5    994    1                
1972-04-18 08   11.4   151.3    994    1                
1972-04-18 11   11.4   151.0    994    1                
1972-04-18 14   11.5   150.7    994    1                
1972-04-18 17   11.5   150.5    994    1                
1972-04-18 20   11.5   150.3    994    1                
1972-04-18 23   11.5   150.1    994    1                
1972-04-19 02   11.5   149.9    992    1                
1972-04-19 05   11.6   149.7    990    1                
1972-04-19 08   11.6   149.5    990    1                
1972-04-19 11   11.6   149.3    992    1                
1972-04-19 14   11.6   149.1    990    1                
1972-04-19 17   11.6   148.9    990    1                
1972-04-19 20   11.7   148.7    990    1                
1972-04-19 23   11.7   148.5    992    1                
1972-04-20 02   11.7   148.3    992    1                
1972-04-20 05   11.7   148.1    990    1                
1972-04-20 08   11.7   147.9    990    1                
1972-04-20 11   11.7   147.7    992    1                
1972-04-20 14   11.7   147.5    990    1                
1972-04-20 17   11.7   147.3    990    1                
1972-04-20 20   11.7   147.2    992    1                
1972-04-20 23   11.7   147.0    994    1                
1972-04-21 02   11.6   146.7    996                     
1972-04-21 05   11.4   146.4    996                     
1972-04-21 08   11.2   146.1    996                     
1972-04-21 11   11.0   145.8    998                     
1972-04-21 14   10.8   145.5   1000                     
1972-04-21 17   10.6   145.2   1000                     
1972-04-21 20   10.4   144.9   1000                     
1972-04-21 23   10.2   144.6   1002                     
1972-04-22 02   10.0   144.3   1000                     
1972-04-22 05    9.8   144.0    998                     
1972-04-22 08    9.7   143.7   1000                     
1972-04-22 11    9.7   143.4   1000                     
1972-04-22 14    9.7   143.1   1000                     
1972-04-22 17    9.6   142.6   1000                     
1972-04-22 20    9.6   142.7    999                     
1972-04-22 23    9.6   142.5    998                     
1972-04-23 02    9.6   142.2    997                     
1972-04-23 05    9.6   141.9    997                     
1972-04-23 08    9.6   141.6    999                     
1972-04-23 11    9.6   141.3   1001                     
1972-04-23 14    9.6   141.0   1000                     
1972-04-23 17    9.6   140.7   1002                     
1972-04-23 20    9.6   140.4   1003                     
1972-04-23 23    9.6   140.1   1005                     
1972-04-24 02    9.6   139.8   1007                     
1972-04-24 05    9.6   139.5   1005                     
Winds are 10-min average.

Tropical cyclone tracks developed by Michael Bath using data from the Bureau of Meteorology and Google Maps.


[Australian Severe Weather index] [Copyright Notice] [Email Contacts] [Search This Site] [Privacy Policy]
Document: tropical_cyclone_faith.htm Updated: 30 May 2013